Dart — OUOV2 — position and weather

sailwx.info

Track history (hours):
 
Tides and Currents Weather Stations Pressure Air Temp Water Temp Dewpoint Dewpoint Depression Visibility Wind Speed Wind Dir Waves Ship Positions

Dart

Last reported at 2018-Feb-24 09:30 UTC. Time now 2018-Feb-24 09:57 UTC.
Position N 60°19' E 005°12'.

Length 66 m; draft 4.3 m.

Type: Tanker. MMSI: 219416000.

Date/timePositionNaut miles runAvg speedWind from/ knotsBaromVisibWave heightAir tempDewpointWater temp
2018-Feb-24 09:30N 60°19' E 005°12'5 9.1
2018-Feb-24 09:00N 60°24' E 005°09'5 9.3
2018-Feb-24 08:30N 60°26' E 005°01'5 9.4
2018-Feb-24 08:00N 60°31' E 004°58'5 9.3
2018-Feb-24 07:30N 60°35' E 004°54'5 9.5
2018-Feb-24 07:00N 60°39' E 004°51'5 9.8
2018-Feb-24 06:30N 60°44' E 004°47'5 9.6
2018-Feb-24 06:00N 60°48' E 004°44'4 9.0
2018-Feb-24 05:30N 60°53' E 004°46'5 8.9
2018-Feb-24 04:59N 60°57' E 004°45'4 8.4
2018-Feb-24 04:30N 61°01' E 004°50'5 9.5
2018-Feb-24 04:00N 61°04' E 004°58'4 9.1
2018-Feb-24 03:31N 61°08' E 005°02'5 9.3
2018-Feb-24 03:00N 61°12' E 004°59'5 9.0
2018-Feb-24 02:30N 61°16' E 004°55'5 9.2
2018-Feb-24 02:00N 61°19' E 005°03'4 8.4
2018-Feb-24 01:30N 61°23' E 005°01'4 8.5
2018-Feb-24 01:00N 61°27' E 004°59'5 9.4
2018-Feb-24 00:30N 61°31' E 004°60'4 8.6
2018-Feb-24 00:00N 61°36' E 004°57'4 8.8
2018-Feb-23 23:30N 61°40' E 004°58'5 9.2
2018-Feb-23 23:00N 61°45' E 004°59'510.0
2018-Feb-23 22:30N 61°48' E 005°07'5 9.7
2018-Feb-23 22:00N 61°50' E 005°16'4 7.9
2018-Feb-23 21:30N 61°53' E 005°10'4 8.0
2018-Feb-23 21:00N 61°57' E 005°09'5 9.6
2018-Feb-23 20:30N 62°02' E 005°09'5 9.4
2018-Feb-23 20:00N 62°06' E 005°06'4 9.1
2018-Feb-23 19:30N 62°11' E 005°04'5 8.8
2018-Feb-23 19:00N 62°14' E 005°11'5 9.1
2018-Feb-23 18:30N 62°16' E 005°19'4 8.9
2018-Feb-23 18:00N 62°18' E 005°28'5 9.2
2018-Feb-23 17:30N 62°19' E 005°38'4 8.0
2018-Feb-23 17:00N 62°21' E 005°45'5 9.4
2018-Feb-23 16:30N 62°25' E 005°51'5 9.5
2018-Feb-23 16:01N 62°27' E 005°60'5 9.7
2018-Feb-23 15:31N 62°30' E 006°08'5 9.2
2018-Feb-23 15:01N 62°34' E 006°12'4 8.4
2018-Feb-23 14:31N 62°37' E 006°18'4 8.8
2018-Feb-23 14:01N 62°40' E 006°25'5 9.6
2018-Feb-23 13:30N 62°44' E 006°31'5 9.8
2018-Feb-23 13:01N 62°48' E 006°36'5 9.5
2018-Feb-23 12:30N 62°52' E 006°42'5 9.3
2018-Feb-23 11:59N 62°56' E 006°48'4 8.3
2018-Feb-23 11:30N 62°59' E 006°55'4 8.8
2018-Feb-23 11:01N 63°00' E 007°03'4 8.8
2018-Feb-23 10:31N 63°02' E 007°12'4 8.7
2018-Feb-23 10:01N 63°04' E 007°21'5 9.1
2018-Feb-23 09:30N 63°06' E 007°30'5 9.1
2018-Feb-23 09:00N 63°08' E 007°39'5 9.1
2018-Feb-23 08:31N 63°11' E 007°47'5 9.0
2018-Feb-23 08:00N 63°13' E 007°55'5 9.3
2018-Feb-23 07:30N 63°16' E 008°04'5 9.3
2018-Feb-23 07:01N 63°18' E 008°13'5 9.4
2018-Feb-23 06:30N 63°21' E 008°21'5 9.7
2018-Feb-23 06:00N 63°24' E 008°30'5 9.8
2018-Feb-23 05:30N 63°26' E 008°40'5 9.9
2018-Feb-23 05:00N 63°28' E 008°50'5 9.7
2018-Feb-23 04:30N 63°29' E 009°01'5 9.2
2018-Feb-23 04:00N 63°31' E 009°10'4 8.9
2018-Feb-23 03:31N 63°33' E 009°18'5 9.0
2018-Feb-23 03:00N 63°36' E 009°27'5 9.1
2018-Feb-23 02:30N 63°41' E 009°29'5 9.4
2018-Feb-23 01:59N 63°45' E 009°32'5 9.4
2018-Feb-23 01:29N 63°50' E 009°36'5 9.5
2018-Feb-23 01:00N 63°53' E 009°44'4 9.1
2018-Feb-23 00:31N 63°57' E 009°47'5 9.5
2018-Feb-23 00:00N 64°02' E 009°48'5 9.2
2018-Feb-22 23:30N 64°05' E 009°56'5 9.5
2018-Feb-22 23:00N 64°08' E 010°04'5 9.3
2018-Feb-22 22:30N 64°12' E 010°10'5 9.4
2018-Feb-22 22:00N 64°15' E 010°17'4 8.5
2018-Feb-22 21:30N 64°18' E 010°23'4 8.5
2018-Feb-22 21:00N 64°22' E 010°28'5 9.2
2018-Feb-22 20:30N 64°27' E 010°27'4 8.6
2018-Feb-22 20:00N 64°30' E 010°34'4 8.9
2018-Feb-22 19:30N 64°34' E 010°38'4 9.1
2018-Feb-22 19:01N 64°38' E 010°44'5 9.4
2018-Feb-22 18:30N 64°42' E 010°51'5 9.6
2018-Feb-22 18:01N 64°45' E 010°59'5 9.7
2018-Feb-22 17:31N 64°48' E 011°07'5 9.9
2018-Feb-22 17:01N 64°52' E 011°15'5 9.5
2018-Feb-22 16:31N 64°55' E 011°23'5 9.7
2018-Feb-22 16:01N 64°58' E 011°32'5 9.5
2018-Feb-22 15:30N 65°01' E 011°41'5 9.5
2018-Feb-22 15:00N 65°05' E 011°47'5 9.6
2018-Feb-22 14:30N 65°10' E 011°50'5 9.6
2018-Feb-22 14:00N 65°14' E 011°55'5 9.5
2018-Feb-22 13:31N 65°18' E 011°60'4 7.6
2018-Feb-22 13:00N 65°22' E 012°01'4 9.0
2018-Feb-22 12:30N 65°26' E 011°56'5 9.4
2018-Feb-22 11:58N 65°31' E 012°01'5 9.8
2018-Feb-22 11:30N 65°34' E 012°07'5 9.7
2018-Feb-22 11:00N 65°39' E 012°13'5 9.7
2018-Feb-22 10:30N 65°43' E 012°16'510.0
2018-Feb-22 10:00N 65°48' E 012°20'5 9.9
2018-Feb-22 09:30N 65°53' E 012°22'5 9.7
2018-Feb-22 09:00N 65°57' E 012°26'5 9.9
2018-Feb-22 08:30N 66°01' E 012°33'5 9.4
2018-Feb-22 08:00N 66°05' E 012°41'510.3
2018-Feb-22 07:30N 66°09' E 012°49'5 9.7
2018-Feb-22 07:00N 66°14' E 012°53'5 9.6
2018-Feb-22 06:31N 66°18' E 012°55'5 9.2
2018-Feb-22 06:01N 66°23' E 012°58'5 9.9
2018-Feb-22 05:30N 66°28' E 012°59'5 9.3
2018-Feb-22 05:00N 66°32' E 012°57'4 8.5
2018-Feb-22 04:30N 66°35' E 013°04'5 9.5
2018-Feb-22 04:00N 66°40' E 013°07'510.1
2018-Feb-22 03:30N 66°45' E 013°12'5 9.7
2018-Feb-22 03:01N 66°49' E 013°16'5 9.2
2018-Feb-22 02:30N 66°53' E 013°23'4 8.4
2018-Feb-22 02:00N 66°57' E 013°28'4 8.7
2018-Feb-22 01:31N 66°59' E 013°37'5 9.8
2018-Feb-22 01:00N 67°02' E 013°47'5 9.7
2018-Feb-22 00:30N 67°05' E 013°56'5 9.4
2018-Feb-22 00:01N 67°10' E 014°02'5 9.5
2018-Feb-21 23:30N 67°14' E 014°09'5 9.8
2018-Feb-21 23:00N 67°18' E 014°16'5 9.9
2018-Feb-21 22:31N 67°22' E 014°23'5 9.6
2018-Feb-21 22:01N 67°26' E 014°28'5 9.8
2018-Feb-21 21:31N 67°31' E 014°30'5 9.8
2018-Feb-21 21:00N 67°36' E 014°31'5 9.5
2018-Feb-21 20:30N 67°41' E 014°31'5 9.6
2018-Feb-21 20:00N 67°45' E 014°31'5 9.8
2018-Feb-21 19:30N 67°50' E 014°31'5 9.4
2018-Feb-21 19:00N 67°54' E 014°38'5 9.9
2018-Feb-21 18:31N 67°57' E 014°48'5 9.7
2018-Feb-21 18:00N 68°01' E 014°58'5 9.3
2018-Feb-21 17:30N 68°04' E 015°07'5 9.6
2018-Feb-21 16:59N 68°07' E 015°17'5 9.9
2018-Feb-21 16:30N 68°10' E 015°27'510.0
2018-Feb-21 16:00N 68°14' E 015°37'510.1
2018-Feb-21 15:30N 68°17' E 015°47'510.3
2018-Feb-21 15:00N 68°21' E 015°56'510.0
2018-Feb-21 14:30N 68°25' E 016°03'5 9.8
2018-Feb-21 14:00N 68°30' E 016°08'4 9.0
2018-Feb-21 13:30N 68°33' E 016°16'4 8.7
2018-Feb-21 13:00N 68°33' E 016°28'4 8.8
2018-Feb-21 12:30N 68°37' E 016°34'5 9.8
2018-Feb-21 12:00N 68°41' E 016°40'5 9.8
2018-Feb-21 11:30N 68°46' E 016°47'5 9.9
2018-Feb-21 11:00N 68°50' E 016°54'5 9.8
2018-Feb-21 10:30N 68°54' E 017°01'5 9.5
2018-Feb-21 10:00N 68°58' E 017°09'5 9.8
2018-Feb-21 09:30N 69°02' E 017°17'5 9.8
2018-Feb-21 09:00N 69°06' E 017°25'5 9.9
2018-Feb-21 08:30N 69°08' E 017°38'510.1
2018-Feb-21 08:00N 69°09' E 017°51'4 8.8
2018-Feb-21 07:30N 69°12' E 018°01'4 8.7
2018-Feb-21 07:00N 69°16' E 017°58'4 8.9
2018-Feb-21 06:30N 69°20' E 018°04'4 8.6
2018-Feb-21 05:59N 69°25' E 018°07'4 8.8
2018-Feb-21 05:29N 69°29' E 018°10'510.0
2018-Feb-21 04:59N 69°31' E 018°23'5 9.9
2018-Feb-21 04:30N 69°33' E 018°35'510.4
2018-Feb-21 04:00N 69°35' E 018°49'510.1
2018-Feb-21 03:30N 69°39' E 018°58'5 9.9
2018-Feb-21 02:59N 69°44' E 019°03'4 8.9
2018-Feb-21 02:31N 69°47' E 019°11'5 9.8
2018-Feb-21 02:00N 69°48' E 019°25'5 9.9
2018-Feb-21 01:30N 69°50' E 019°38'5 9.7
2018-Feb-21 01:00N 69°53' E 019°50'5 9.7
2018-Feb-21 00:30N 69°56' E 020°02'5 9.6
2018-Feb-21 00:00N 69°58' E 020°13'5 9.6
2018-Feb-20 23:30N 70°00' E 020°26'510.0
2018-Feb-20 22:59N 70°02' E 020°40'510.3
2018-Feb-20 22:30N 70°04' E 020°54'5 9.7
2018-Feb-20 22:00N 70°08' E 021°00'5 9.4
2018-Feb-20 21:30N 70°12' E 021°06'5 9.5
2018-Feb-20 21:00N 70°16' E 021°16'510.0
2018-Feb-20 20:30N 70°19' E 021°27'510.1
2018-Feb-20 19:59N 70°23' E 021°37'5 9.7
2018-Feb-20 19:30N 70°25' E 021°50'5 9.7
2018-Feb-20 19:00N 70°26' E 022°04'510.0
2018-Feb-20 18:30N 70°27' E 022°19'5 9.8
2018-Feb-20 18:00N 70°29' E 022°33'5 9.3
2018-Feb-20 17:30N 70°30' E 022°47'4 9.0
2018-Feb-20 17:00N 70°32' E 022°59'4 8.7
2018-Feb-20 16:30N 70°34' E 023°09'4 8.6
2018-Feb-20 16:01N 70°37' E 023°19'4 8.4
2018-Feb-20 15:31N 70°39' E 023°30'3 5.0
2018-Feb-20 15:00N 70°41' E 023°35'0 0.0
2018-Feb-20 14:30N 70°41' E 023°35'0 0.0
2018-Feb-20 14:00N 70°41' E 023°35'0 0.0
2018-Feb-20 13:30N 70°41' E 023°35'0 0.0
2018-Feb-20 13:00N 70°41' E 023°35'0 0.0
2018-Feb-20 12:30N 70°41' E 023°35'0 0.0
2018-Feb-20 12:00N 70°41' E 023°35'0 0.0
2018-Feb-20 11:30N 70°41' E 023°35'0 0.0
2018-Feb-20 11:00N 70°41' E 023°35'0 0.0
2018-Feb-20 10:30N 70°41' E 023°35'0 0.0
2018-Feb-20 10:00N 70°41' E 023°35'0 0.0
2018-Feb-20 09:30N 70°41' E 023°35'0 0.0
2018-Feb-20 09:00N 70°41' E 023°35'0 0.0
2018-Feb-20 08:30N 70°41' E 023°35'0 0.0
2018-Feb-20 08:00N 70°41' E 023°35'0 0.0
2018-Feb-20 07:30N 70°41' E 023°35'0 0.0
2018-Feb-20 07:00N 70°41' E 023°35'0 0.0
2018-Feb-20 06:30N 70°41' E 023°35'0 0.0
2018-Feb-20 06:00N 70°41' E 023°35'0 0.0
2018-Feb-20 05:30N 70°41' E 023°35'0 0.0
2018-Feb-20 05:00N 70°41' E 023°35'0 0.0
2018-Feb-20 04:30N 70°41' E 023°35'0 0.0
2018-Feb-20 04:00N 70°41' E 023°35'0 0.0
2018-Feb-20 03:30N 70°41' E 023°35'0 0.0
2018-Feb-20 03:00N 70°41' E 023°35'0 0.0
2018-Feb-20 02:30N 70°41' E 023°35'0 0.0
2018-Feb-20 02:00N 70°41' E 023°35'0 0.0
2018-Feb-20 01:30N 70°41' E 023°35'0 0.0
2018-Feb-20 01:00N 70°41' E 023°35'0 0.0
2018-Feb-20 00:30N 70°41' E 023°35'0 0.0
2018-Feb-20 00:00N 70°41' E 023°35'0 0.0
2018-Feb-19 23:30N 70°41' E 023°35'0 0.0
2018-Feb-19 23:00N 70°41' E 023°35'0 0.0
2018-Feb-19 22:30N 70°41' E 023°35'0 0.0
2018-Feb-19 22:00N 70°41' E 023°35'0 0.0
2018-Feb-19 21:30N 70°41' E 023°35'0 0.0
2018-Feb-19 21:00N 70°41' E 023°35'0 0.0
2018-Feb-19 20:30N 70°41' E 023°35'0 0.0
2018-Feb-19 20:00N 70°41' E 023°35'0 0.0
2018-Feb-19 19:30N 70°41' E 023°35'0 0.0
2018-Feb-19 19:00N 70°41' E 023°35'0 0.0
2018-Feb-19 18:30N 70°41' E 023°35'0 0.0
2018-Feb-19 18:00N 70°41' E 023°35'0 0.0
2018-Feb-19 17:30N 70°41' E 023°35'0 0.0
2018-Feb-19 17:00N 70°41' E 023°35'0 0.0
2018-Feb-19 16:30N 70°41' E 023°35'0 0.0
2018-Feb-19 16:00N 70°41' E 023°35'3 5.4
2018-Feb-19 15:30N 70°39' E 023°29'611.8
2018-Feb-19 15:00N 70°36' E 023°14'611.7
2018-Feb-19 14:29N 70°32' E 023°01'611.6
2018-Feb-19 14:00N 70°30' E 022°46'610.9
2018-Feb-19 13:28N 70°28' E 022°29'510.2
2018-Feb-19 13:00N 70°27' E 022°15'510.5
2018-Feb-19 12:30N 70°25' E 021°60'510.7
2018-Feb-19 12:00N 70°24' E 021°44'510.5
2018-Feb-19 11:29N 70°21' E 021°32'510.8
2018-Feb-19 11:00N 70°17' E 021°21'510.6
2018-Feb-19 10:30N 70°14' E 021°09'610.9
2018-Feb-19 09:59N 70°09' E 021°02'510.7
2018-Feb-19 09:30N 70°04' E 020°55'510.0
2018-Feb-19 09:00N 70°02' E 020°42'510.4
2018-Feb-19 08:30N 70°00' E 020°27'5 9.8
2018-Feb-19 08:00N 69°59' E 020°13'511.0
2018-Feb-19 07:30N 69°55' E 020°01'511.1
2018-Feb-19 07:00N 69°52' E 019°49'510.9
2018-Feb-19 06:30N 69°49' E 019°35'611.1
2018-Feb-19 06:00N 69°48' E 019°19'611.1
2018-Feb-19 05:30N 69°45' E 019°05'510.9
2018-Feb-19 05:00N 69°40' E 019°00'510.5
2018-Feb-19 04:30N 69°36' E 018°53'4 8.5
2018-Feb-19 04:00N 69°33' E 018°43'5 9.9
2018-Feb-19 03:30N 69°31' E 018°29'510.3
2018-Feb-19 03:00N 69°30' E 018°16'5 9.2
2018-Feb-19 02:30N 69°26' E 018°08'510.4
2018-Feb-19 02:00N 69°21' E 018°05'510.1
2018-Feb-19 01:30N 69°16' E 017°58'510.2
2018-Feb-19 00:59N 69°11' E 018°01'510.1
2018-Feb-19 00:30N 69°09' E 017°49'510.5
2018-Feb-19 00:00N 69°07' E 017°36'510.3
2018-Feb-18 23:30N 69°04' E 017°23'510.3
2018-Feb-18 23:00N 68°60' E 017°16'510.6
2018-Feb-18 22:30N 68°56' E 017°05'610.9
2018-Feb-18 21:59N 68°51' E 016°57'511.0
2018-Feb-18 21:30N 68°47' E 016°49'510.9
2018-Feb-18 21:00N 68°42' E 016°42'510.6
2018-Feb-18 20:30N 68°37' E 016°35'5 9.2
2018-Feb-18 19:59N 68°33' E 016°29'4 8.8
2018-Feb-18 19:30N 68°33' E 016°17'5 9.3
2018-Feb-18 19:00N 68°30' E 016°08'510.2
2018-Feb-18 18:30N 68°25' E 016°03'510.1
2018-Feb-18 17:59N 68°20' E 015°57'5 9.5
2018-Feb-18 17:30N 68°17' E 015°49'5 9.6
2018-Feb-18 17:00N 68°14' E 015°39'5 9.9
2018-Feb-18 16:30N 68°11' E 015°29'510.0
2018-Feb-18 16:00N 68°07' E 015°19'510.5
2018-Feb-18 15:29N 68°04' E 015°08'510.3
2018-Feb-18 15:00N 68°00' E 014°58'510.5
2018-Feb-18 14:29N 67°57' E 014°47'510.2
2018-Feb-18 14:00N 67°53' E 014°37'5 9.6
2018-Feb-18 13:30N 67°49' E 014°32'610.5
2018-Feb-18 12:59N 67°44' E 014°31'510.4
2018-Feb-18 12:30N 67°39' E 014°31'510.4
2018-Feb-18 12:00N 67°34' E 014°30'510.6
2018-Feb-18 11:30N 67°28' E 014°29'510.7
2018-Feb-18 11:00N 67°23' E 014°26'510.7
2018-Feb-18 10:30N 67°19' E 014°18'510.4
2018-Feb-18 10:00N 67°14' E 014°10'510.6
2018-Feb-18 09:30N 67°10' E 014°03'510.7
2018-Feb-18 09:00N 67°05' E 013°56'510.7
2018-Feb-18 08:30N 67°02' E 013°46'510.9
2018-Feb-18 08:00N 66°59' E 013°34'5 9.1
2018-Feb-18 07:30N 66°55' E 013°29'510.4
2018-Feb-18 07:00N 66°51' E 013°20'510.0
2018-Feb-18 06:30N 66°46' E 013°14'510.4
2018-Feb-18 06:00N 66°42' E 013°09'510.7
2018-Feb-18 05:30N 66°37' E 013°04'4 8.8
2018-Feb-18 05:00N 66°33' E 013°00'5 9.1
2018-Feb-18 04:30N 66°28' E 012°60'511.1
2018-Feb-18 04:00N 66°23' E 012°58'510.8
2018-Feb-18 03:30N 66°17' E 012°56'510.6
2018-Feb-18 03:00N 66°12' E 012°52'5 9.8
2018-Feb-18 02:30N 66°08' E 012°47'510.3
2018-Feb-18 01:59N 66°04' E 012°38'510.2
2018-Feb-18 01:30N 65°60' E 012°31'510.9
2018-Feb-18 00:59N 65°55' E 012°23'511.0
2018-Feb-18 00:30N 65°50' E 012°22'510.5
2018-Feb-18 00:00N 65°45' E 012°18'610.9
2018-Feb-17 23:29N 65°39' E 012°14'510.8
2018-Feb-17 23:00N 65°35' E 012°08'510.7
2018-Feb-17 22:30N 65°30' E 012°00'510.3
2018-Feb-17 22:00N 65°25' E 011°56'510.0
2018-Feb-17 21:30N 65°22' E 012°04'510.9
2018-Feb-17 21:00N 65°17' E 011°58'611.0
2018-Feb-17 20:29N 65°12' E 011°52'510.8
2018-Feb-17 20:00N 65°07' E 011°48'510.7
2018-Feb-17 19:30N 65°02' E 011°42'510.4
2018-Feb-17 19:00N 64°58' E 011°34'510.7
2018-Feb-17 18:30N 64°55' E 011°24'510.3
2018-Feb-17 18:00N 64°51' E 011°15'510.3
2018-Feb-17 17:30N 64°48' E 011°06'510.6
2018-Feb-17 16:59N 64°44' E 010°58'510.3
2018-Feb-17 16:30N 64°41' E 010°49'510.5
2018-Feb-17 16:00N 64°36' E 010°42'510.3
2018-Feb-17 15:30N 64°32' E 010°36'510.4
2018-Feb-17 14:59N 64°28' E 010°28'5 9.9
2018-Feb-17 14:30N 64°23' E 010°27'5 9.5
2018-Feb-17 14:00N 64°18' E 010°23'5 9.8
2018-Feb-17 13:29N 64°14' E 010°16'510.6
2018-Feb-17 12:59N 64°10' E 010°08'510.5
2018-Feb-17 12:30N 64°06' E 010°01'510.7
2018-Feb-17 12:00N 64°03' E 009°51'510.1
2018-Feb-17 11:30N 63°59' E 009°47'510.8
2018-Feb-17 11:00N 63°53' E 009°45'610.9
2018-Feb-17 10:30N 63°49' E 009°36'510.8
2018-Feb-17 10:00N 63°44' E 009°32'510.4
2018-Feb-17 09:30N 63°39' E 009°29'510.1
2018-Feb-17 09:00N 63°35' E 009°24'611.5
2018-Feb-17 08:30N 63°32' E 009°13'611.4
2018-Feb-17 08:00N 63°29' E 009°02'510.8
2018-Feb-17 07:30N 63°27' E 008°51'510.6
2018-Feb-17 07:00N 63°25' E 008°40'510.7
2018-Feb-17 06:30N 63°23' E 008°29'510.8
2018-Feb-17 06:00N 63°20' E 008°19'611.3
2018-Feb-17 05:30N 63°16' E 008°09'611.2
2018-Feb-17 05:00N 63°13' E 007°59'510.8
2018-Feb-17 04:30N 63°11' E 007°48'510.3
2018-Feb-17 04:00N 63°07' E 007°41'3 6.8
2018-Feb-17 03:30N 63°03' E 007°40'0 0.0
2018-Feb-17 03:00N 63°03' E 007°40'0 0.0
2018-Feb-17 02:30N 63°03' E 007°40'0 0.0
2018-Feb-17 02:00N 63°03' E 007°40'0 0.0
2018-Feb-17 01:30N 63°03' E 007°40'0 0.0
2018-Feb-17 01:00N 63°03' E 007°40'2 4.4
2018-Feb-17 00:30N 63°06' E 007°41'4 7.4
2018-Feb-17 00:00N 63°06' E 007°33'510.6
2018-Feb-16 23:30N 63°04' E 007°22'510.3
2018-Feb-16 23:00N 63°02' E 007°12'510.5
2018-Feb-16 22:30N 62°60' E 007°01'510.2
2018-Feb-16 21:59N 62°57' E 006°51'510.6
2018-Feb-16 21:30N 62°53' E 006°44'510.7
2018-Feb-16 21:00N 62°49' E 006°38'510.5
2018-Feb-16 20:30N 62°44' E 006°32'510.4
2018-Feb-16 20:00N 62°40' E 006°26'610.5
2018-Feb-16 19:29N 62°36' E 006°17'5 9.9
2018-Feb-16 19:00N 62°33' E 006°10'510.2
2018-Feb-16 18:30N 62°28' E 006°05'5 9.7
2018-Feb-16 18:00N 62°23' E 006°05'4 8.5
2018-Feb-16 17:30N 62°19' E 006°05'510.7
2018-Feb-16 17:00N 62°15' E 005°57'510.3
2018-Feb-16 16:30N 62°12' E 005°48'510.8
2018-Feb-16 16:00N 62°11' E 005°37'5 9.6
2018-Feb-16 15:30N 62°12' E 005°26'4 8.5
2018-Feb-16 15:00N 62°12' E 005°17'4 8.7
2018-Feb-16 14:30N 62°13' E 005°08'4 8.8
2018-Feb-16 14:00N 62°09' E 005°05'510.2
2018-Feb-16 13:30N 62°04' E 005°08'510.6
2018-Feb-16 13:00N 61°58' E 005°09'5 9.6
2018-Feb-16 12:30N 61°54' E 005°09'4 8.4
2018-Feb-16 11:59N 61°51' E 005°16'5 9.3
2018-Feb-16 11:30N 61°48' E 005°08'510.4
2018-Feb-16 11:00N 61°45' E 004°59'610.4
2018-Feb-16 10:27N 61°39' E 004°59'510.2
2018-Feb-16 10:00N 61°35' E 004°58'5 9.5
2018-Feb-16 09:30N 61°30' E 004°59'510.6
2018-Feb-16 09:00N 61°25' E 004°58'510.8
2018-Feb-16 08:30N 61°20' E 005°03'4 8.8
2018-Feb-16 08:00N 61°17' E 004°56'5 9.1
2018-Feb-16 07:30N 61°13' E 004°59'510.7
2018-Feb-16 07:00N 61°08' E 005°02'510.5
2018-Feb-16 06:30N 61°03' E 004°58'510.5
2018-Feb-16 06:00N 60°58' E 004°56'510.7
2018-Feb-16 05:29N 60°52' E 004°58'5 9.8
2018-Feb-16 05:00N 60°49' E 005°04'1 2.4
2018-Feb-16 04:28N 60°47' E 005°04'0 0.0
2018-Feb-16 03:58N 60°47' E 005°04'0 0.0
2018-Feb-16 03:28N 60°47' E 005°04'0 0.0
2018-Feb-16 02:58N 60°47' E 005°04'0 0.0
2018-Feb-16 02:28N 60°47' E 005°04'0 0.0
2018-Feb-16 01:58N 60°47' E 005°04'0 0.0
2018-Feb-16 01:28N 60°47' E 005°04'0 0.0
2018-Feb-16 00:58N 60°47' E 005°04'0 0.0
2018-Feb-16 00:28N 60°47' E 005°04'0 0.0
2018-Feb-15 23:58N 60°47' E 005°04'0 0.0
2018-Feb-15 23:28N 60°47' E 005°04'0 0.0
2018-Feb-15 22:58N 60°47' E 005°04'0 0.0
2018-Feb-15 22:28N 60°47' E 005°04'1 1.2
2018-Feb-15 22:00N 60°48' E 005°05'4 8.6
2018-Feb-15 21:30N 60°51' E 004°58'5 9.0
2018-Feb-15 21:00N 60°55' E 004°57'4 8.7
2018-Feb-15 20:29N 60°60' E 004°55'4 8.3
2018-Feb-15 20:00N 61°03' E 004°59'5 8.8
2018-Feb-15 19:29N 61°08' E 005°02'5 9.2
2018-Feb-15 19:00N 61°12' E 005°00'4 8.3
2018-Feb-15 18:30N 61°15' E 004°55'4 8.3
2018-Feb-15 17:59N 61°18' E 005°01'4 7.2
2018-Feb-15 17:29N 61°22' E 005°02'4 8.3
2018-Feb-15 17:00N 61°26' E 004°58'4 8.9
2018-Feb-15 16:30N 61°30' E 004°59'4 8.1
2018-Feb-15 16:00N 61°34' E 004°59'3 7.0
2018-Feb-15 15:30N 61°37' E 005°00'2 0.7
2018-Feb-15 12:35N 61°37' E 005°04'0 0.0
2018-Feb-15 11:06N 61°37' E 005°04'0 0.0
2018-Feb-15 10:39N 61°37' E 005°04'0 0.0
2018-Feb-15 10:25N 61°37' E 005°04'0 0.0
2018-Feb-15 09:59N 61°37' E 005°04'2 4.9
2018-Feb-15 09:30N 61°37' E 004°59'3 6.2
2018-Feb-15 09:01N 61°40' E 004°58'3 6.6
2018-Feb-15 08:30N 61°44' E 004°58'4 7.7
2018-Feb-15 08:00N 61°47' E 005°03'4 8.5
2018-Feb-15 07:30N 61°49' E 005°10'4 7.1
2018-Feb-15 07:00N 61°52' E 005°16'3 6.5
2018-Feb-15 06:30N 61°53' E 005°10'3 6.4
2018-Feb-15 06:00N 61°56' E 005°08'4 7.8
2018-Feb-15 05:30N 62°00' E 005°10'4 7.4
2018-Feb-15 05:00N 62°04' E 005°07'3 7.1
2018-Feb-15 04:30N 62°07' E 005°05'3 6.3
2018-Feb-15 04:00N 62°10' E 005°03'2 4.7
2018-Feb-15 03:30N 62°12' E 005°04'4 7.6
2018-Feb-15 03:00N 62°13' E 005°12'510.3
2018-Feb-15 02:31N 62°11' E 005°21'4 8.4
2018-Feb-15 02:00N 62°12' E 005°29'5 9.9
2018-Feb-15 01:30N 62°11' E 005°40'5 9.9
2018-Feb-15 01:00N 62°13' E 005°50'4 8.8
2018-Feb-15 00:30N 62°16' E 005°57'4 8.0
2018-Feb-15 00:00N 62°19' E 006°03'4 7.6
2018-Feb-14 23:29N 62°22' E 006°07'4 8.5
2018-Feb-14 23:00N 62°26' E 006°02'4 7.7
2018-Feb-14 22:30N 62°29' E 006°06'4 8.0
2018-Feb-14 22:00N 62°33' E 006°10'4 8.3
2018-Feb-14 21:30N 62°36' E 006°16'4 8.6
2018-Feb-14 21:00N 62°39' E 006°23'5 9.1
2018-Feb-14 20:30N 62°42' E 006°28'5 9.4
2018-Feb-14 20:00N 62°46' E 006°34'5 9.4
2018-Feb-14 19:30N 62°50' E 006°39'5 9.3
2018-Feb-14 19:00N 62°54' E 006°45'5 9.1
2018-Feb-14 18:30N 62°58' E 006°51'4 8.8
2018-Feb-14 18:00N 62°60' E 006°59'5 9.1
2018-Feb-14 17:30N 63°01' E 007°09'4 8.9
2018-Feb-14 17:01N 63°03' E 007°18'4 8.2
2018-Feb-14 16:30N 63°05' E 007°26'4 8.4
2018-Feb-14 16:00N 63°07' E 007°34'3 6.3
2018-Feb-14 15:30N 63°06' E 007°41'3 5.5
2018-Feb-14 14:59N 63°03' E 007°40'0 0.0
2018-Feb-14 14:29N 63°03' E 007°40'0 0.0
2018-Feb-14 13:59N 63°03' E 007°40'0 0.0
2018-Feb-14 13:29N 63°03' E 007°40'0 0.0
2018-Feb-14 12:59N 63°03' E 007°40'0 0.0
2018-Feb-14 12:29N 63°03' E 007°40'0 0.0
2018-Feb-14 11:59N 63°03' E 007°40'0 0.0
2018-Feb-14 11:29N 63°03' E 007°40'0 0.0
2018-Feb-14 10:59N 63°03' E 007°40'0 0.0
2018-Feb-14 10:29N 63°03' E 007°40'0 0.0
2018-Feb-14 09:59N 63°03' E 007°40'  
Track history (hours):
 
Tides and Currents Weather Stations Pressure Air Temp Water Temp Dewpoint Dewpoint Depression Visibility Wind Speed Wind Dir Waves Ship Positions

Dart

Last reported at 2018-Feb-24 09:30 UTC. Time now 2018-Feb-24 09:57 UTC.
Position N 60°19' E 005°12'.

Length 66 m; draft 4.3 m.

Type: Tanker. MMSI: 219416000.

Date/timePositionNaut miles runAvg speedWind from/ knotsBaromVisibWave heightAir tempDewpointWater temp
2018-Feb-24 09:30N 60°19' E 005°12'5 9.1
2018-Feb-24 09:00N 60°24' E 005°09'5 9.3
2018-Feb-24 08:30N 60°26' E 005°01'5 9.4
2018-Feb-24 08:00N 60°31' E 004°58'5 9.3
2018-Feb-24 07:30N 60°35' E 004°54'5 9.5
2018-Feb-24 07:00N 60°39' E 004°51'5 9.8
2018-Feb-24 06:30N 60°44' E 004°47'5 9.6
2018-Feb-24 06:00N 60°48' E 004°44'4 9.0
2018-Feb-24 05:30N 60°53' E 004°46'5 8.9
2018-Feb-24 04:59N 60°57' E 004°45'4 8.4
2018-Feb-24 04:30N 61°01' E 004°50'5 9.5
2018-Feb-24 04:00N 61°04' E 004°58'4 9.1
2018-Feb-24 03:31N 61°08' E 005°02'5 9.3
2018-Feb-24 03:00N 61°12' E 004°59'5 9.0
2018-Feb-24 02:30N 61°16' E 004°55'5 9.2
2018-Feb-24 02:00N 61°19' E 005°03'4 8.4
2018-Feb-24 01:30N 61°23' E 005°01'4 8.5
2018-Feb-24 01:00N 61°27' E 004°59'5 9.4
2018-Feb-24 00:30N 61°31' E 004°60'4 8.6
2018-Feb-24 00:00N 61°36' E 004°57'4 8.8
2018-Feb-23 23:30N 61°40' E 004°58'5 9.2
2018-Feb-23 23:00N 61°45' E 004°59'510.0
2018-Feb-23 22:30N 61°48' E 005°07'5 9.7
2018-Feb-23 22:00N 61°50' E 005°16'4 7.9
2018-Feb-23 21:30N 61°53' E 005°10'4 8.0
2018-Feb-23 21:00N 61°57' E 005°09'5 9.6
2018-Feb-23 20:30N 62°02' E 005°09'5 9.4
2018-Feb-23 20:00N 62°06' E 005°06'4 9.1
2018-Feb-23 19:30N 62°11' E 005°04'5 8.8
2018-Feb-23 19:00N 62°14' E 005°11'5 9.1
2018-Feb-23 18:30N 62°16' E 005°19'4 8.9
2018-Feb-23 18:00N 62°18' E 005°28'5 9.2
2018-Feb-23 17:30N 62°19' E 005°38'4 8.0
2018-Feb-23 17:00N 62°21' E 005°45'5 9.4
2018-Feb-23 16:30N 62°25' E 005°51'5 9.5
2018-Feb-23 16:01N 62°27' E 005°60'5 9.7
2018-Feb-23 15:31N 62°30' E 006°08'5 9.2
2018-Feb-23 15:01N 62°34' E 006°12'4 8.4
2018-Feb-23 14:31N 62°37' E 006°18'4 8.8
2018-Feb-23 14:01N 62°40' E 006°25'5 9.6
2018-Feb-23 13:30N 62°44' E 006°31'5 9.8
2018-Feb-23 13:01N 62°48' E 006°36'5 9.5
2018-Feb-23 12:30N 62°52' E 006°42'5 9.3
2018-Feb-23 11:59N 62°56' E 006°48'4 8.3
2018-Feb-23 11:30N 62°59' E 006°55'4 8.8
2018-Feb-23 11:01N 63°00' E 007°03'4 8.8
2018-Feb-23 10:31N 63°02' E 007°12'4 8.7
2018-Feb-23 10:01N 63°04' E 007°21'5 9.1
2018-Feb-23 09:30N 63°06' E 007°30'5 9.1
2018-Feb-23 09:00N 63°08' E 007°39'5 9.1
2018-Feb-23 08:31N 63°11' E 007°47'5 9.0
2018-Feb-23 08:00N 63°13' E 007°55'5 9.3
2018-Feb-23 07:30N 63°16' E 008°04'5 9.3
2018-Feb-23 07:01N 63°18' E 008°13'5 9.4
2018-Feb-23 06:30N 63°21' E 008°21'5 9.7
2018-Feb-23 06:00N 63°24' E 008°30'5 9.8
2018-Feb-23 05:30N 63°26' E 008°40'5 9.9
2018-Feb-23 05:00N 63°28' E 008°50'5 9.7
2018-Feb-23 04:30N 63°29' E 009°01'5 9.2
2018-Feb-23 04:00N 63°31' E 009°10'4 8.9
2018-Feb-23 03:31N 63°33' E 009°18'5 9.0
2018-Feb-23 03:00N 63°36' E 009°27'5 9.1
2018-Feb-23 02:30N 63°41' E 009°29'5 9.4
2018-Feb-23 01:59N 63°45' E 009°32'5 9.4
2018-Feb-23 01:29N 63°50' E 009°36'5 9.5
2018-Feb-23 01:00N 63°53' E 009°44'4 9.1
2018-Feb-23 00:31N 63°57' E 009°47'5 9.5
2018-Feb-23 00:00N 64°02' E 009°48'5 9.2
2018-Feb-22 23:30N 64°05' E 009°56'5 9.5
2018-Feb-22 23:00N 64°08' E 010°04'5 9.3
2018-Feb-22 22:30N 64°12' E 010°10'5 9.4
2018-Feb-22 22:00N 64°15' E 010°17'4 8.5
2018-Feb-22 21:30N 64°18' E 010°23'4 8.5
2018-Feb-22 21:00N 64°22' E 010°28'5 9.2
2018-Feb-22 20:30N 64°27' E 010°27'4 8.6
2018-Feb-22 20:00N 64°30' E 010°34'4 8.9
2018-Feb-22 19:30N 64°34' E 010°38'4 9.1
2018-Feb-22 19:01N 64°38' E 010°44'5 9.4
2018-Feb-22 18:30N 64°42' E 010°51'5 9.6
2018-Feb-22 18:01N 64°45' E 010°59'5 9.7
2018-Feb-22 17:31N 64°48' E 011°07'5 9.9
2018-Feb-22 17:01N 64°52' E 011°15'5 9.5
2018-Feb-22 16:31N 64°55' E 011°23'5 9.7
2018-Feb-22 16:01N 64°58' E 011°32'5 9.5
2018-Feb-22 15:30N 65°01' E 011°41'5 9.5
2018-Feb-22 15:00N 65°05' E 011°47'5 9.6
2018-Feb-22 14:30N 65°10' E 011°50'5 9.6
2018-Feb-22 14:00N 65°14' E 011°55'5 9.5
2018-Feb-22 13:31N 65°18' E 011°60'4 7.6
2018-Feb-22 13:00N 65°22' E 012°01'4 9.0
2018-Feb-22 12:30N 65°26' E 011°56'5 9.4
2018-Feb-22 11:58N 65°31' E 012°01'5 9.8
2018-Feb-22 11:30N 65°34' E 012°07'5 9.7
2018-Feb-22 11:00N 65°39' E 012°13'5 9.7
2018-Feb-22 10:30N 65°43' E 012°16'510.0
2018-Feb-22 10:00N 65°48' E 012°20'5 9.9
2018-Feb-22 09:30N 65°53' E 012°22'5 9.7
2018-Feb-22 09:00N 65°57' E 012°26'5 9.9
2018-Feb-22 08:30N 66°01' E 012°33'5 9.4
2018-Feb-22 08:00N 66°05' E 012°41'510.3
2018-Feb-22 07:30N 66°09' E 012°49'5 9.7
2018-Feb-22 07:00N 66°14' E 012°53'5 9.6
2018-Feb-22 06:31N 66°18' E 012°55'5 9.2
2018-Feb-22 06:01N 66°23' E 012°58'5 9.9
2018-Feb-22 05:30N 66°28' E 012°59'5 9.3
2018-Feb-22 05:00N 66°32' E 012°57'4 8.5
2018-Feb-22 04:30N 66°35' E 013°04'5 9.5
2018-Feb-22 04:00N 66°40' E 013°07'510.1
2018-Feb-22 03:30N 66°45' E 013°12'5 9.7
2018-Feb-22 03:01N 66°49' E 013°16'5 9.2
2018-Feb-22 02:30N 66°53' E 013°23'4 8.4
2018-Feb-22 02:00N 66°57' E 013°28'4 8.7
2018-Feb-22 01:31N 66°59' E 013°37'5 9.8
2018-Feb-22 01:00N 67°02' E 013°47'5 9.7
2018-Feb-22 00:30N 67°05' E 013°56'5 9.4
2018-Feb-22 00:01N 67°10' E 014°02'5 9.5
2018-Feb-21 23:30N 67°14' E 014°09'5 9.8
2018-Feb-21 23:00N 67°18' E 014°16'5 9.9
2018-Feb-21 22:31N 67°22' E 014°23'5 9.6
2018-Feb-21 22:01N 67°26' E 014°28'5 9.8
2018-Feb-21 21:31N 67°31' E 014°30'5 9.8
2018-Feb-21 21:00N 67°36' E 014°31'5 9.5
2018-Feb-21 20:30N 67°41' E 014°31'5 9.6
2018-Feb-21 20:00N 67°45' E 014°31'5 9.8
2018-Feb-21 19:30N 67°50' E 014°31'5 9.4
2018-Feb-21 19:00N 67°54' E 014°38'5 9.9
2018-Feb-21 18:31N 67°57' E 014°48'5 9.7
2018-Feb-21 18:00N 68°01' E 014°58'5 9.3
2018-Feb-21 17:30N 68°04' E 015°07'5 9.6
2018-Feb-21 16:59N 68°07' E 015°17'5 9.9
2018-Feb-21 16:30N 68°10' E 015°27'510.0
2018-Feb-21 16:00N 68°14' E 015°37'510.1
2018-Feb-21 15:30N 68°17' E 015°47'510.3
2018-Feb-21 15:00N 68°21' E 015°56'510.0
2018-Feb-21 14:30N 68°25' E 016°03'5 9.8
2018-Feb-21 14:00N 68°30' E 016°08'4 9.0
2018-Feb-21 13:30N 68°33' E 016°16'4 8.7
2018-Feb-21 13:00N 68°33' E 016°28'4 8.8
2018-Feb-21 12:30N 68°37' E 016°34'5 9.8
2018-Feb-21 12:00N 68°41' E 016°40'5 9.8
2018-Feb-21 11:30N 68°46' E 016°47'5 9.9
2018-Feb-21 11:00N 68°50' E 016°54'5 9.8
2018-Feb-21 10:30N 68°54' E 017°01'5 9.5
2018-Feb-21 10:00N 68°58' E 017°09'5 9.8
2018-Feb-21 09:30N 69°02' E 017°17'5 9.8
2018-Feb-21 09:00N 69°06' E 017°25'5 9.9
2018-Feb-21 08:30N 69°08' E 017°38'510.1
2018-Feb-21 08:00N 69°09' E 017°51'4 8.8
2018-Feb-21 07:30N 69°12' E 018°01'4 8.7
2018-Feb-21 07:00N 69°16' E 017°58'4 8.9
2018-Feb-21 06:30N 69°20' E 018°04'4 8.6
2018-Feb-21 05:59N 69°25' E 018°07'4 8.8
2018-Feb-21 05:29N 69°29' E 018°10'510.0
2018-Feb-21 04:59N 69°31' E 018°23'5 9.9
2018-Feb-21 04:30N 69°33' E 018°35'510.4
2018-Feb-21 04:00N 69°35' E 018°49'510.1
2018-Feb-21 03:30N 69°39' E 018°58'5 9.9
2018-Feb-21 02:59N 69°44' E 019°03'4 8.9
2018-Feb-21 02:31N 69°47' E 019°11'5 9.8
2018-Feb-21 02:00N 69°48' E 019°25'5 9.9
2018-Feb-21 01:30N 69°50' E 019°38'5 9.7
2018-Feb-21 01:00N 69°53' E 019°50'5 9.7
2018-Feb-21 00:30N 69°56' E 020°02'5 9.6
2018-Feb-21 00:00N 69°58' E 020°13'5 9.6
2018-Feb-20 23:30N 70°00' E 020°26'510.0
2018-Feb-20 22:59N 70°02' E 020°40'510.3
2018-Feb-20 22:30N 70°04' E 020°54'5 9.7
2018-Feb-20 22:00N 70°08' E 021°00'5 9.4
2018-Feb-20 21:30N 70°12' E 021°06'5 9.5
2018-Feb-20 21:00N 70°16' E 021°16'510.0
2018-Feb-20 20:30N 70°19' E 021°27'510.1
2018-Feb-20 19:59N 70°23' E 021°37'5 9.7
2018-Feb-20 19:30N 70°25' E 021°50'5 9.7
2018-Feb-20 19:00N 70°26' E 022°04'510.0
2018-Feb-20 18:30N 70°27' E 022°19'5 9.8
2018-Feb-20 18:00N 70°29' E 022°33'5 9.3
2018-Feb-20 17:30N 70°30' E 022°47'4 9.0
2018-Feb-20 17:00N 70°32' E 022°59'4 8.7
2018-Feb-20 16:30N 70°34' E 023°09'4 8.6
2018-Feb-20 16:01N 70°37' E 023°19'4 8.4
2018-Feb-20 15:31N 70°39' E 023°30'3 5.0
2018-Feb-20 15:00N 70°41' E 023°35'0 0.0
2018-Feb-20 14:30N 70°41' E 023°35'0 0.0
2018-Feb-20 14:00N 70°41' E 023°35'0 0.0
2018-Feb-20 13:30N 70°41' E 023°35'0 0.0
2018-Feb-20 13:00N 70°41' E 023°35'0 0.0
2018-Feb-20 12:30N 70°41' E 023°35'0 0.0
2018-Feb-20 12:00N 70°41' E 023°35'0 0.0
2018-Feb-20 11:30N 70°41' E 023°35'0 0.0
2018-Feb-20 11:00N 70°41' E 023°35'0 0.0
2018-Feb-20 10:30N 70°41' E 023°35'0 0.0
2018-Feb-20 10:00N 70°41' E 023°35'0 0.0
2018-Feb-20 09:30N 70°41' E 023°35'0 0.0
2018-Feb-20 09:00N 70°41' E 023°35'0 0.0
2018-Feb-20 08:30N 70°41' E 023°35'0 0.0
2018-Feb-20 08:00N 70°41' E 023°35'0 0.0
2018-Feb-20 07:30N 70°41' E 023°35'0 0.0
2018-Feb-20 07:00N 70°41' E 023°35'0 0.0
2018-Feb-20 06:30N 70°41' E 023°35'0 0.0
2018-Feb-20 06:00N 70°41' E 023°35'0 0.0
2018-Feb-20 05:30N 70°41' E 023°35'0 0.0
2018-Feb-20 05:00N 70°41' E 023°35'0 0.0
2018-Feb-20 04:30N 70°41' E 023°35'0 0.0
2018-Feb-20 04:00N 70°41' E 023°35'0 0.0
2018-Feb-20 03:30N 70°41' E 023°35'0 0.0
2018-Feb-20 03:00N 70°41' E 023°35'0 0.0
2018-Feb-20 02:30N 70°41' E 023°35'0 0.0
2018-Feb-20 02:00N 70°41' E 023°35'0 0.0
2018-Feb-20 01:30N 70°41' E 023°35'0 0.0
2018-Feb-20 01:00N 70°41' E 023°35'0 0.0
2018-Feb-20 00:30N 70°41' E 023°35'0 0.0
2018-Feb-20 00:00N 70°41' E 023°35'0 0.0
2018-Feb-19 23:30N 70°41' E 023°35'0 0.0
2018-Feb-19 23:00N 70°41' E 023°35'0 0.0
2018-Feb-19 22:30N 70°41' E 023°35'0 0.0
2018-Feb-19 22:00N 70°41' E 023°35'0 0.0
2018-Feb-19 21:30N 70°41' E 023°35'0 0.0
2018-Feb-19 21:00N 70°41' E 023°35'0 0.0
2018-Feb-19 20:30N 70°41' E 023°35'0 0.0
2018-Feb-19 20:00N 70°41' E 023°35'0 0.0
2018-Feb-19 19:30N 70°41' E 023°35'0 0.0
2018-Feb-19 19:00N 70°41' E 023°35'0 0.0
2018-Feb-19 18:30N 70°41' E 023°35'0 0.0
2018-Feb-19 18:00N 70°41' E 023°35'0 0.0
2018-Feb-19 17:30N 70°41' E 023°35'0 0.0
2018-Feb-19 17:00N 70°41' E 023°35'0 0.0
2018-Feb-19 16:30N 70°41' E 023°35'0 0.0
2018-Feb-19 16:00N 70°41' E 023°35'3 5.4
2018-Feb-19 15:30N 70°39' E 023°29'611.8
2018-Feb-19 15:00N 70°36' E 023°14'611.7
2018-Feb-19 14:29N 70°32' E 023°01'611.6
2018-Feb-19 14:00N 70°30' E 022°46'610.9
2018-Feb-19 13:28N 70°28' E 022°29'510.2
2018-Feb-19 13:00N 70°27' E 022°15'510.5
2018-Feb-19 12:30N 70°25' E 021°60'510.7
2018-Feb-19 12:00N 70°24' E 021°44'510.5
2018-Feb-19 11:29N 70°21' E 021°32'510.8
2018-Feb-19 11:00N 70°17' E 021°21'510.6
2018-Feb-19 10:30N 70°14' E 021°09'610.9
2018-Feb-19 09:59N 70°09' E 021°02'510.7
2018-Feb-19 09:30N 70°04' E 020°55'510.0
2018-Feb-19 09:00N 70°02' E 020°42'510.4
2018-Feb-19 08:30N 70°00' E 020°27'5 9.8
2018-Feb-19 08:00N 69°59' E 020°13'511.0
2018-Feb-19 07:30N 69°55' E 020°01'511.1
2018-Feb-19 07:00N 69°52' E 019°49'510.9
2018-Feb-19 06:30N 69°49' E 019°35'611.1
2018-Feb-19 06:00N 69°48' E 019°19'611.1
2018-Feb-19 05:30N 69°45' E 019°05'510.9
2018-Feb-19 05:00N 69°40' E 019°00'510.5
2018-Feb-19 04:30N 69°36' E 018°53'4 8.5
2018-Feb-19 04:00N 69°33' E 018°43'5 9.9
2018-Feb-19 03:30N 69°31' E 018°29'510.3
2018-Feb-19 03:00N 69°30' E 018°16'5 9.2
2018-Feb-19 02:30N 69°26' E 018°08'510.4
2018-Feb-19 02:00N 69°21' E 018°05'510.1
2018-Feb-19 01:30N 69°16' E 017°58'510.2
2018-Feb-19 00:59N 69°11' E 018°01'510.1
2018-Feb-19 00:30N 69°09' E 017°49'510.5
2018-Feb-19 00:00N 69°07' E 017°36'510.3
2018-Feb-18 23:30N 69°04' E 017°23'510.3
2018-Feb-18 23:00N 68°60' E 017°16'510.6
2018-Feb-18 22:30N 68°56' E 017°05'610.9
2018-Feb-18 21:59N 68°51' E 016°57'511.0
2018-Feb-18 21:30N 68°47' E 016°49'510.9
2018-Feb-18 21:00N 68°42' E 016°42'510.6
2018-Feb-18 20:30N 68°37' E 016°35'5 9.2
2018-Feb-18 19:59N 68°33' E 016°29'4 8.8
2018-Feb-18 19:30N 68°33' E 016°17'5 9.3
2018-Feb-18 19:00N 68°30' E 016°08'510.2
2018-Feb-18 18:30N 68°25' E 016°03'510.1
2018-Feb-18 17:59N 68°20' E 015°57'5 9.5
2018-Feb-18 17:30N 68°17' E 015°49'5 9.6
2018-Feb-18 17:00N 68°14' E 015°39'5 9.9
2018-Feb-18 16:30N 68°11' E 015°29'510.0
2018-Feb-18 16:00N 68°07' E 015°19'510.5
2018-Feb-18 15:29N 68°04' E 015°08'510.3
2018-Feb-18 15:00N 68°00' E 014°58'510.5
2018-Feb-18 14:29N 67°57' E 014°47'510.2
2018-Feb-18 14:00N 67°53' E 014°37'5 9.6
2018-Feb-18 13:30N 67°49' E 014°32'610.5
2018-Feb-18 12:59N 67°44' E 014°31'510.4
2018-Feb-18 12:30N 67°39' E 014°31'510.4
2018-Feb-18 12:00N 67°34' E 014°30'510.6
2018-Feb-18 11:30N 67°28' E 014°29'510.7
2018-Feb-18 11:00N 67°23' E 014°26'510.7
2018-Feb-18 10:30N 67°19' E 014°18'510.4
2018-Feb-18 10:00N 67°14' E 014°10'510.6
2018-Feb-18 09:30N 67°10' E 014°03'510.7
2018-Feb-18 09:00N 67°05' E 013°56'510.7
2018-Feb-18 08:30N 67°02' E 013°46'510.9
2018-Feb-18 08:00N 66°59' E 013°34'5 9.1
2018-Feb-18 07:30N 66°55' E 013°29'510.4
2018-Feb-18 07:00N 66°51' E 013°20'510.0
2018-Feb-18 06:30N 66°46' E 013°14'510.4
2018-Feb-18 06:00N 66°42' E 013°09'510.7
2018-Feb-18 05:30N 66°37' E 013°04'4 8.8
2018-Feb-18 05:00N 66°33' E 013°00'5 9.1
2018-Feb-18 04:30N 66°28' E 012°60'511.1
2018-Feb-18 04:00N 66°23' E 012°58'510.8
2018-Feb-18 03:30N 66°17' E 012°56'510.6
2018-Feb-18 03:00N 66°12' E 012°52'5 9.8
2018-Feb-18 02:30N 66°08' E 012°47'510.3
2018-Feb-18 01:59N 66°04' E 012°38'510.2
2018-Feb-18 01:30N 65°60' E 012°31'510.9
2018-Feb-18 00:59N 65°55' E 012°23'511.0
2018-Feb-18 00:30N 65°50' E 012°22'510.5
2018-Feb-18 00:00N 65°45' E 012°18'610.9
2018-Feb-17 23:29N 65°39' E 012°14'510.8
2018-Feb-17 23:00N 65°35' E 012°08'510.7
2018-Feb-17 22:30N 65°30' E 012°00'510.3
2018-Feb-17 22:00N 65°25' E 011°56'510.0
2018-Feb-17 21:30N 65°22' E 012°04'510.9
2018-Feb-17 21:00N 65°17' E 011°58'611.0
2018-Feb-17 20:29N 65°12' E 011°52'510.8
2018-Feb-17 20:00N 65°07' E 011°48'510.7
2018-Feb-17 19:30N 65°02' E 011°42'510.4
2018-Feb-17 19:00N 64°58' E 011°34'510.7
2018-Feb-17 18:30N 64°55' E 011°24'510.3
2018-Feb-17 18:00N 64°51' E 011°15'510.3
2018-Feb-17 17:30N 64°48' E 011°06'510.6
2018-Feb-17 16:59N 64°44' E 010°58'510.3
2018-Feb-17 16:30N 64°41' E 010°49'510.5
2018-Feb-17 16:00N 64°36' E 010°42'510.3
2018-Feb-17 15:30N 64°32' E 010°36'510.4
2018-Feb-17 14:59N 64°28' E 010°28'5 9.9
2018-Feb-17 14:30N 64°23' E 010°27'5 9.5
2018-Feb-17 14:00N 64°18' E 010°23'5 9.8
2018-Feb-17 13:29N 64°14' E 010°16'510.6
2018-Feb-17 12:59N 64°10' E 010°08'510.5
2018-Feb-17 12:30N 64°06' E 010°01'510.7
2018-Feb-17 12:00N 64°03' E 009°51'510.1
2018-Feb-17 11:30N 63°59' E 009°47'510.8
2018-Feb-17 11:00N 63°53' E 009°45'610.9
2018-Feb-17 10:30N 63°49' E 009°36'510.8
2018-Feb-17 10:00N 63°44' E 009°32'510.4
2018-Feb-17 09:30N 63°39' E 009°29'510.1
2018-Feb-17 09:00N 63°35' E 009°24'611.5
2018-Feb-17 08:30N 63°32' E 009°13'611.4
2018-Feb-17 08:00N 63°29' E 009°02'510.8
2018-Feb-17 07:30N 63°27' E 008°51'510.6
2018-Feb-17 07:00N 63°25' E 008°40'510.7
2018-Feb-17 06:30N 63°23' E 008°29'510.8
2018-Feb-17 06:00N 63°20' E 008°19'611.3
2018-Feb-17 05:30N 63°16' E 008°09'611.2
2018-Feb-17 05:00N 63°13' E 007°59'510.8
2018-Feb-17 04:30N 63°11' E 007°48'510.3
2018-Feb-17 04:00N 63°07' E 007°41'3 6.8
2018-Feb-17 03:30N 63°03' E 007°40'0 0.0
2018-Feb-17 03:00N 63°03' E 007°40'0 0.0
2018-Feb-17 02:30N 63°03' E 007°40'0 0.0
2018-Feb-17 02:00N 63°03' E 007°40'0 0.0
2018-Feb-17 01:30N 63°03' E 007°40'0 0.0
2018-Feb-17 01:00N 63°03' E 007°40'2 4.4
2018-Feb-17 00:30N 63°06' E 007°41'4 7.4
2018-Feb-17 00:00N 63°06' E 007°33'510.6
2018-Feb-16 23:30N 63°04' E 007°22'510.3
2018-Feb-16 23:00N 63°02' E 007°12'510.5
2018-Feb-16 22:30N 62°60' E 007°01'510.2
2018-Feb-16 21:59N 62°57' E 006°51'510.6
2018-Feb-16 21:30N 62°53' E 006°44'510.7
2018-Feb-16 21:00N 62°49' E 006°38'510.5
2018-Feb-16 20:30N 62°44' E 006°32'510.4
2018-Feb-16 20:00N 62°40' E 006°26'610.5
2018-Feb-16 19:29N 62°36' E 006°17'5 9.9
2018-Feb-16 19:00N 62°33' E 006°10'510.2
2018-Feb-16 18:30N 62°28' E 006°05'5 9.7
2018-Feb-16 18:00N 62°23' E 006°05'4 8.5
2018-Feb-16 17:30N 62°19' E 006°05'510.7
2018-Feb-16 17:00N 62°15' E 005°57'510.3
2018-Feb-16 16:30N 62°12' E 005°48'510.8
2018-Feb-16 16:00N 62°11' E 005°37'5 9.6
2018-Feb-16 15:30N 62°12' E 005°26'4 8.5
2018-Feb-16 15:00N 62°12' E 005°17'4 8.7
2018-Feb-16 14:30N 62°13' E 005°08'4 8.8
2018-Feb-16 14:00N 62°09' E 005°05'510.2
2018-Feb-16 13:30N 62°04' E 005°08'510.6
2018-Feb-16 13:00N 61°58' E 005°09'5 9.6
2018-Feb-16 12:30N 61°54' E 005°09'4 8.4
2018-Feb-16 11:59N 61°51' E 005°16'5 9.3
2018-Feb-16 11:30N 61°48' E 005°08'510.4
2018-Feb-16 11:00N 61°45' E 004°59'610.4
2018-Feb-16 10:27N 61°39' E 004°59'510.2
2018-Feb-16 10:00N 61°35' E 004°58'5 9.5
2018-Feb-16 09:30N 61°30' E 004°59'510.6
2018-Feb-16 09:00N 61°25' E 004°58'510.8
2018-Feb-16 08:30N 61°20' E 005°03'4 8.8
2018-Feb-16 08:00N 61°17' E 004°56'5 9.1
2018-Feb-16 07:30N 61°13' E 004°59'510.7
2018-Feb-16 07:00N 61°08' E 005°02'510.5
2018-Feb-16 06:30N 61°03' E 004°58'510.5
2018-Feb-16 06:00N 60°58' E 004°56'510.7
2018-Feb-16 05:29N 60°52' E 004°58'5 9.8
2018-Feb-16 05:00N 60°49' E 005°04'1 2.4
2018-Feb-16 04:28N 60°47' E 005°04'0 0.0
2018-Feb-16 03:58N 60°47' E 005°04'0 0.0
2018-Feb-16 03:28N 60°47' E 005°04'0 0.0
2018-Feb-16 02:58N 60°47' E 005°04'0 0.0
2018-Feb-16 02:28N 60°47' E 005°04'0 0.0
2018-Feb-16 01:58N 60°47' E 005°04'0 0.0
2018-Feb-16 01:28N 60°47' E 005°04'0 0.0
2018-Feb-16 00:58N 60°47' E 005°04'0 0.0
2018-Feb-16 00:28N 60°47' E 005°04'0 0.0
2018-Feb-15 23:58N 60°47' E 005°04'0 0.0
2018-Feb-15 23:28N 60°47' E 005°04'0 0.0
2018-Feb-15 22:58N 60°47' E 005°04'0 0.0
2018-Feb-15 22:28N 60°47' E 005°04'1 1.2
2018-Feb-15 22:00N 60°48' E 005°05'4 8.6
2018-Feb-15 21:30N 60°51' E 004°58'5 9.0
2018-Feb-15 21:00N 60°55' E 004°57'4 8.7
2018-Feb-15 20:29N 60°60' E 004°55'4 8.3
2018-Feb-15 20:00N 61°03' E 004°59'5 8.8
2018-Feb-15 19:29N 61°08' E 005°02'5 9.2
2018-Feb-15 19:00N 61°12' E 005°00'4 8.3
2018-Feb-15 18:30N 61°15' E 004°55'4 8.3
2018-Feb-15 17:59N 61°18' E 005°01'4 7.2
2018-Feb-15 17:29N 61°22' E 005°02'4 8.3
2018-Feb-15 17:00N 61°26' E 004°58'4 8.9
2018-Feb-15 16:30N 61°30' E 004°59'4 8.1
2018-Feb-15 16:00N 61°34' E 004°59'3 7.0
2018-Feb-15 15:30N 61°37' E 005°00'2 0.7
2018-Feb-15 12:35N 61°37' E 005°04'0 0.0
2018-Feb-15 11:06N 61°37' E 005°04'0 0.0
2018-Feb-15 10:39N 61°37' E 005°04'0 0.0
2018-Feb-15 10:25N 61°37' E 005°04'0 0.0
2018-Feb-15 09:59N 61°37' E 005°04'2 4.9
2018-Feb-15 09:30N 61°37' E 004°59'3 6.2
2018-Feb-15 09:01N 61°40' E 004°58'3 6.6
2018-Feb-15 08:30N 61°44' E 004°58'4 7.7
2018-Feb-15 08:00N 61°47' E 005°03'4 8.5
2018-Feb-15 07:30N 61°49' E 005°10'4 7.1
2018-Feb-15 07:00N 61°52' E 005°16'3 6.5
2018-Feb-15 06:30N 61°53' E 005°10'3 6.4
2018-Feb-15 06:00N 61°56' E 005°08'4 7.8
2018-Feb-15 05:30N 62°00' E 005°10'4 7.4
2018-Feb-15 05:00N 62°04' E 005°07'3 7.1
2018-Feb-15 04:30N 62°07' E 005°05'3 6.3
2018-Feb-15 04:00N 62°10' E 005°03'2 4.7
2018-Feb-15 03:30N 62°12' E 005°04'4 7.6
2018-Feb-15 03:00N 62°13' E 005°12'510.3
2018-Feb-15 02:31N 62°11' E 005°21'4 8.4
2018-Feb-15 02:00N 62°12' E 005°29'5 9.9
2018-Feb-15 01:30N 62°11' E 005°40'5 9.9
2018-Feb-15 01:00N 62°13' E 005°50'4 8.8
2018-Feb-15 00:30N 62°16' E 005°57'4 8.0
2018-Feb-15 00:00N 62°19' E 006°03'4 7.6
2018-Feb-14 23:29N 62°22' E 006°07'4 8.5
2018-Feb-14 23:00N 62°26' E 006°02'4 7.7
2018-Feb-14 22:30N 62°29' E 006°06'4 8.0
2018-Feb-14 22:00N 62°33' E 006°10'4 8.3
2018-Feb-14 21:30N 62°36' E 006°16'4 8.6
2018-Feb-14 21:00N 62°39' E 006°23'5 9.1
2018-Feb-14 20:30N 62°42' E 006°28'5 9.4
2018-Feb-14 20:00N 62°46' E 006°34'5 9.4
2018-Feb-14 19:30N 62°50' E 006°39'5 9.3
2018-Feb-14 19:00N 62°54' E 006°45'5 9.1
2018-Feb-14 18:30N 62°58' E 006°51'4 8.8
2018-Feb-14 18:00N 62°60' E 006°59'5 9.1
2018-Feb-14 17:30N 63°01' E 007°09'4 8.9
2018-Feb-14 17:01N 63°03' E 007°18'4 8.2
2018-Feb-14 16:30N 63°05' E 007°26'4 8.4
2018-Feb-14 16:00N 63°07' E 007°34'3 6.3
2018-Feb-14 15:30N 63°06' E 007°41'3 5.5
2018-Feb-14 14:59N 63°03' E 007°40'0 0.0
2018-Feb-14 14:29N 63°03' E 007°40'0 0.0
2018-Feb-14 13:59N 63°03' E 007°40'0 0.0
2018-Feb-14 13:29N 63°03' E 007°40'0 0.0
2018-Feb-14 12:59N 63°03' E 007°40'0 0.0
2018-Feb-14 12:29N 63°03' E 007°40'0 0.0
2018-Feb-14 11:59N 63°03' E 007°40'0 0.0
2018-Feb-14 11:29N 63°03' E 007°40'0 0.0
2018-Feb-14 10:59N 63°03' E 007°40'0 0.0
2018-Feb-14 10:29N 63°03' E 007°40'0 0.0
2018-Feb-14 09:59N 63°03' E 007°40'  

Dump ship's entire track history